Time;durP1;ratioP1;P1;durP2;ratioP2;P2;SDS_P1;SDS_P2;PMS_P1;PMS_P2;Temp;Humidity;BMP_temperature;BMP_pressure;BME280_temperature;BME280_humidity;BME280_pressure;Samples;Min_cycle;Max_cycle;Signal;HPM_P1;HPM_P2
2022/12/03 00:00:29;;;;;;;29.98;18.77;;;3.30;92.00;;;;;;5070488;28;20430;-89
2022/12/03 00:02:54;;;;;;;29.70;18.97;;;3.20;92.00;;;;;;5070952;28;20405;-88
2022/12/03 00:05:20;;;;;;;31.20;18.93;;;3.20;92.40;;;;;;5071150;28;20456;-88
2022/12/03 00:07:45;;;;;;;26.55;17.80;;;3.40;92.70;;;;;;5086741;28;20424;-89
2022/12/03 00:10:11;;;;;;;28.63;18.27;;;3.30;92.90;;;;;;5088421;28;20402;-87
2022/12/03 00:12:37;;;;;;;27.45;17.60;;;3.30;92.90;;;;;;5069772;28;20406;-88
2022/12/03 00:15:04;;;;;;;27.92;16.77;;;3.30;93.00;;;;;;5088163;28;20475;-90
2022/12/03 00:17:30;;;;;;;23.40;15.02;;;3.30;93.00;;;;;;5070172;28;20553;-88
2022/12/03 00:19:55;;;;;;;20.83;14.52;;;3.40;93.00;;;;;;5070695;28;20525;-88
2022/12/03 00:22:21;;;;;;;18.50;13.00;;;3.30;92.90;;;;;;5070393;28;20444;-89
2022/12/03 00:24:46;;;;;;;19.70;13.02;;;3.40;92.80;;;;;;5070526;28;20421;-89
2022/12/03 00:27:12;;;;;;;17.40;12.53;;;3.40;92.70;;;;;;5071338;28;20911;-87
2022/12/03 00:29:38;;;;;;;16.43;12.13;;;3.30;92.60;;;;;;5087143;28;20414;-89
2022/12/03 00:32:04;;;;;;;15.73;11.77;;;3.30;92.60;;;;;;5088161;28;20413;-89
2022/12/03 00:34:29;;;;;;;15.52;11.35;;;3.40;92.60;;;;;;5069924;28;20409;-89
2022/12/03 00:36:55;;;;;;;15.88;11.90;;;3.40;92.50;;;;;;5087647;28;20931;-89
2022/12/03 00:39:21;;;;;;;15.60;10.83;;;3.40;92.60;;;;;;5070545;28;20792;-88
2022/12/03 00:41:46;;;;;;;15.00;11.05;;;3.40;92.60;;;;;;5070701;28;20468;-89
2022/12/03 00:44:12;;;;;;;14.48;11.00;;;3.50;92.70;;;;;;5087904;28;20959;-88
2022/12/03 00:46:38;;;;;;;13.73;10.40;;;3.50;92.60;;;;;;5069731;28;20776;-88
2022/12/03 00:49:03;;;;;;;15.60;10.73;;;3.50;92.70;;;;;;5070688;28;20473;-89
2022/12/03 00:51:29;;;;;;;14.73;11.27;;;3.50;92.70;;;;;;5069444;28;20495;-88
2022/12/03 00:53:55;;;;;;;15.40;10.63;;;3.60;92.60;;;;;;5071025;28;20425;-89
2022/12/03 00:56:20;;;;;;;15.77;10.60;;;3.60;92.60;;;;;;5086882;28;20398;-88
2022/12/03 00:58:46;;;;;;;14.27;10.75;;;3.70;92.50;;;;;;5069946;28;20765;-87
2022/12/03 01:01:11;;;;;;;16.30;11.43;;;3.70;92.60;;;;;;5086539;28;20398;-89
2022/12/03 01:03:37;;;;;;;15.47;11.30;;;3.70;92.50;;;;;;5086452;28;20406;-87
2022/12/03 01:06:03;;;;;;;15.10;11.27;;;3.60;92.50;;;;;;5070897;28;20398;-87
2022/12/03 01:08:28;;;;;;;15.38;11.60;;;3.80;92.50;;;;;;5068937;28;20844;-88
2022/12/03 01:10:54;;;;;;;15.27;11.33;;;3.80;92.50;;;;;;5070770;28;20505;-88
2022/12/03 01:13:20;;;;;;;17.17;12.10;;;3.90;92.50;;;;;;5085833;28;21273;-88
2022/12/03 01:15:46;;;;;;;15.48;12.13;;;3.90;92.50;;;;;;5070066;28;20765;-88
2022/12/03 01:18:12;;;;;;;15.23;11.85;;;3.90;92.50;;;;;;5067717;28;20746;-89
2022/12/03 01:20:37;;;;;;;16.05;11.55;;;4.10;92.50;;;;;;5067934;28;20452;-90
2022/12/03 01:23:04;;;;;;;16.50;12.13;;;4.00;92.50;;;;;;5068552;28;20410;-89
2022/12/03 01:25:30;;;;;;;16.67;12.00;;;4.00;92.60;;;;;;5067292;28;20398;-88
2022/12/03 01:27:55;;;;;;;17.10;11.88;;;4.00;92.50;;;;;;5069092;28;20540;-88
2022/12/03 01:30:21;;;;;;;17.10;11.27;;;4.10;92.60;;;;;;5066702;28;20402;-88
2022/12/03 01:32:46;;;;;;;18.40;12.10;;;4.10;92.50;;;;;;5068752;28;20398;-89
2022/12/03 01:35:12;;;;;;;16.55;12.18;;;4.10;92.50;;;;;;5068296;28;20476;-89
2022/12/03 01:37:38;;;;;;;18.93;12.33;;;4.10;92.50;;;;;;5086054;28;20481;-89
2022/12/03 01:40:05;;;;;;;17.27;12.38;;;4.10;92.50;;;;;;5068859;28;20904;-89
2022/12/03 01:42:34;;;;;;;17.63;12.77;;;4.10;92.50;;;;;;5067803;28;21036;-88
2022/12/03 01:44:59;;;;;;;17.95;13.15;;;4.00;92.50;;;;;;5070181;28;20436;-89
2022/12/03 01:47:30;;;;;;;18.17;12.73;;;4.10;92.60;;;;;;5068782;28;20430;-88
2022/12/03 01:50:04;;;;;;;18.52;13.43;;;4.00;92.60;;;;;;5086676;28;20402;-88
2022/12/03 01:52:34;;;;;;;18.25;13.40;;;4.10;92.50;;;;;;5068398;28;20880;-90
2022/12/03 01:55:03;;;;;;;17.15;12.50;;;4.10;92.50;;;;;;5086242;28;20428;-90
2022/12/03 01:57:48;;;;;;;18.85;13.30;;;4.10;92.50;;;;;;5086556;28;20466;-88
2022/12/03 02:00:18;;;;;;;19.00;13.15;;;4.10;92.40;;;;;;5068141;28;20437;-88
2022/12/03 02:02:45;;;;;;;16.95;13.27;;;4.20;92.40;;;;;;5070171;28;20761;-89
2022/12/03 02:05:18;;;;;;;17.05;12.82;;;4.20;92.20;;;;;;5068058;28;20413;-88
2022/12/03 02:07:43;;;;;;;18.27;13.32;;;4.20;92.00;;;;;;5069620;28;20442;-88
2022/12/03 02:10:12;;;;;;;17.08;12.95;;;4.20;91.80;;;;;;5085819;28;20797;-89
2022/12/03 02:12:45;;;;;;;16.55;12.80;;;4.30;91.60;;;;;;5085789;28;20485;-90
2022/12/03 02:15:11;;;;;;;16.52;13.13;;;4.30;91.50;;;;;;5069417;28;20403;-90
2022/12/03 02:17:37;;;;;;;15.93;12.63;;;4.30;91.40;;;;;;5084700;28;20421;-89
2022/12/03 02:20:06;;;;;;;16.02;12.75;;;4.30;91.40;;;;;;5068887;28;20521;-88
2022/12/03 02:22:45;;;;;;;16.70;12.68;;;4.30;91.30;;;;;;5068024;28;20441;-89
2022/12/03 02:25:17;;;;;;;17.53;13.00;;;4.30;91.20;;;;;;5086171;28;20481;-90
2022/12/03 02:27:43;;;;;;;17.73;13.23;;;4.30;91.20;;;;;;5068367;28;20414;-88
2022/12/03 02:30:10;;;;;;;17.73;13.43;;;4.30;91.10;;;;;;5085204;28;20924;-90
2022/12/03 02:32:36;;;;;;;17.13;12.93;;;4.20;91.10;;;;;;5086107;28;20777;-89
2022/12/03 02:35:03;;;;;;;16.47;13.33;;;4.20;91.10;;;;;;5067798;28;20719;-89
2022/12/03 02:37:34;;;;;;;16.85;13.27;;;4.20;91.20;;;;;;5069245;28;20406;-89
2022/12/03 02:40:08;;;;;;;18.80;13.90;;;4.30;91.30;;;;;;5084638;28;20434;-89
2022/12/03 02:42:33;;;;;;;17.15;12.63;;;4.20;91.20;;;;;;5068640;28;20390;-90
2022/12/03 02:45:03;;;;;;;17.60;13.80;;;4.20;91.20;;;;;;5084358;28;20425;-88
2022/12/03 02:47:30;;;;;;;18.23;13.48;;;4.20;91.20;;;;;;5084813;28;20471;-89
2022/12/03 02:49:57;;;;;;;18.73;13.95;;;4.10;91.20;;;;;;5068664;28;20394;-88
2022/12/03 02:52:23;;;;;;;18.40;13.45;;;4.10;91.30;;;;;;5067258;28;20460;-89
2022/12/03 02:54:48;;;;;;;19.73;13.90;;;4.10;91.30;;;;;;5085631;28;20545;-89
2022/12/03 02:57:15;;;;;;;18.67;14.18;;;4.10;91.40;;;;;;5067068;28;20494;-89
2022/12/03 02:59:44;;;;;;;18.05;13.73;;;4.10;91.50;;;;;;5068855;28;20433;-89
2022/12/03 03:02:11;;;;;;;20.30;14.38;;;4.10;91.50;;;;;;5067681;28;20401;-89
2022/12/03 03:04:37;;;;;;;20.08;14.02;;;4.10;91.50;;;;;;5085343;28;20899;-89
2022/12/03 03:07:03;;;;;;;18.70;14.25;;;4.20;91.60;;;;;;5085642;28;20424;-89
2022/12/03 03:09:29;;;;;;;19.93;13.97;;;4.20;91.60;;;;;;5084479;28;20461;-89
2022/12/03 03:11:54;;;;;;;20.13;14.55;;;4.30;91.70;;;;;;5068764;28;20398;-88
2022/12/03 03:14:20;;;;;;;19.60;14.57;;;4.20;91.70;;;;;;5084265;28;20802;-89
2022/12/03 03:16:54;;;;;;;18.60;13.80;;;4.20;91.70;;;;;;5068507;28;20920;-89
2022/12/03 03:19:29;;;;;;;19.25;14.38;;;4.20;91.70;;;;;;5067650;28;20505;-89
2022/12/03 03:21:55;;;;;;;17.30;13.63;;;4.30;91.70;;;;;;5061504;28;20777;-89
2022/12/03 03:24:21;;;;;;;19.10;14.37;;;4.30;91.60;;;;;;5068254;28;20390;-89
2022/12/03 03:26:48;;;;;;;19.90;14.52;;;4.30;91.60;;;;;;5067646;28;20752;-89
2022/12/03 03:29:14;;;;;;;19.80;14.07;;;4.40;91.60;;;;;;5068595;28;20410;-89
2022/12/03 03:31:41;;;;;;;19.20;14.32;;;4.40;91.50;;;;;;5066847;28;20412;-89
2022/12/03 03:34:07;;;;;;;20.08;14.73;;;4.40;91.30;;;;;;5085038;28;20485;-89
2022/12/03 03:36:33;;;;;;;19.38;14.73;;;4.40;91.20;;;;;;5067504;28;20494;-89
2022/12/03 03:38:59;;;;;;;19.73;14.38;;;4.50;91.30;;;;;;5084677;28;20416;-90
2022/12/03 03:41:26;;;;;;;19.67;14.38;;;4.50;91.20;;;;;;5068721;28;20881;-87
2022/12/03 03:43:52;;;;;;;18.30;14.50;;;4.50;91.10;;;;;;5083968;28;21019;-88
2022/12/03 03:46:19;;;;;;;19.02;14.50;;;4.50;91.00;;;;;;5085211;28;20585;-89
2022/12/03 03:48:47;;;;;;;20.58;15.00;;;4.50;90.90;;;;;;5083479;28;20398;-89
2022/12/03 03:51:14;;;;;;;21.33;15.52;;;4.50;90.80;;;;;;5068447;28;20897;-90
2022/12/03 03:53:43;;;;;;;19.73;14.07;;;4.60;90.90;;;;;;5084124;28;20451;-89
2022/12/03 03:56:09;;;;;;;20.92;15.25;;;4.50;90.90;;;;;;5070147;28;20806;-88
2022/12/03 03:58:36;;;;;;;19.08;14.30;;;4.50;90.70;;;;;;5088065;28;20896;-89
2022/12/03 04:01:01;;;;;;;19.05;14.60;;;4.50;90.80;;;;;;5088026;28;20421;-88
2022/12/03 04:03:27;;;;;;;20.70;14.93;;;4.50;90.80;;;;;;5071893;28;20535;-91
2022/12/03 04:05:53;;;;;;;21.00;15.40;;;4.50;90.70;;;;;;5087503;28;20386;-89
2022/12/03 04:08:19;;;;;;;20.67;15.33;;;4.50;90.70;;;;;;5072266;28;20764;-90
2022/12/03 04:13:28;;;;;;;21.35;15.25;;;4.50;90.60;;;;;;5088682;28;20891;-90
2022/12/03 04:15:54;;;;;;;20.20;15.70;;;4.50;90.60;;;;;;5087691;28;20433;-87
2022/12/03 04:23:48;;;;;;;20.42;15.13;;;4.40;90.60;;;;;;5087189;28;20406;-88
2022/12/03 04:28:58;;;;;;;20.52;15.52;;;4.40;90.30;;;;;;5087453;28;20402;-89
2022/12/03 04:36:53;;;;;;;20.93;16.33;;;4.40;90.00;;;;;;5086955;28;20940;-89
2022/12/03 04:39:18;;;;;;;22.13;16.13;;;4.40;89.60;;;;;;5070882;28;20425;-89
2022/12/03 04:41:44;;;;;;;20.52;15.30;;;4.30;89.30;;;;;;5070259;28;20403;-90
2022/12/03 04:46:54;;;;;;;22.15;16.50;;;4.40;89.20;;;;;;5088009;28;20446;-88
2022/12/03 04:49:20;;;;;;;21.80;16.10;;;4.30;89.00;;;;;;5086362;28;20448;-90
2022/12/03 04:51:45;;;;;;;20.35;15.40;;;4.30;88.80;;;;;;5071343;28;20417;-91
2022/12/03 04:54:11;;;;;;;20.20;15.93;;;4.30;88.40;;;;;;5086122;28;20418;-90
2022/12/03 04:56:36;;;;;;;20.80;15.65;;;4.30;88.40;;;;;;5087001;28;20406;-87
2022/12/03 04:59:02;;;;;;;21.03;15.90;;;4.30;88.30;;;;;;5086394;28;20414;-88
2022/12/03 05:01:28;;;;;;;21.00;15.70;;;4.30;88.20;;;;;;5069879;28;20456;-90
2022/12/03 05:03:53;;;;;;;21.88;16.15;;;4.30;87.90;;;;;;5070996;28;20417;-91
2022/12/03 05:06:19;;;;;;;19.37;14.87;;;4.30;88.10;;;;;;5068957;28;20419;-89
2022/12/03 05:08:45;;;;;;;20.20;15.50;;;4.20;87.80;;;;;;5087246;28;20398;-90
2022/12/03 05:11:10;;;;;;;21.88;15.95;;;4.20;87.90;;;;;;5086021;28;20402;-89
2022/12/03 05:13:36;;;;;;;20.87;15.30;;;4.20;87.90;;;;;;5070116;28;20418;-89
2022/12/03 05:16:01;;;;;;;22.23;16.00;;;4.20;88.10;;;;;;5069205;28;20405;-87
2022/12/03 05:18:27;;;;;;;20.50;15.07;;;4.20;87.80;;;;;;5087206;28;20791;-90
2022/12/03 05:20:52;;;;;;;21.80;15.90;;;4.20;87.80;;;;;;5069527;28;20421;-88
2022/12/03 05:23:18;;;;;;;21.38;16.15;;;4.20;87.60;;;;;;5086761;28;20485;-90
2022/12/03 05:25:44;;;;;;;22.83;15.85;;;4.20;87.90;;;;;;5070370;28;20406;-88
2022/12/03 05:28:09;;;;;;;20.83;15.47;;;4.20;88.10;;;;;;5085976;28;20448;-88
2022/12/03 05:30:35;;;;;;;20.42;15.10;;;4.20;87.90;;;;;;5070230;28;20817;-89
2022/12/03 05:33:01;;;;;;;20.80;15.32;;;4.20;88.20;;;;;;5068505;28;20413;-90
2022/12/03 05:35:26;;;;;;;21.70;16.38;;;4.20;88.60;;;;;;5069903;28;20408;-89
2022/12/03 05:37:52;;;;;;;22.53;15.80;;;4.20;88.60;;;;;;5069336;28;20409;-89
2022/12/03 05:40:18;;;;;;;22.75;16.15;;;4.20;88.70;;;;;;5086496;28;20427;-89
2022/12/03 05:42:53;;;;;;;22.33;16.48;;;4.20;88.90;;;;;;5090030;28;20754;-89
2022/12/03 05:45:20;;;;;;;21.45;15.65;;;4.20;89.00;;;;;;5088873;28;20400;-89
2022/12/03 05:47:46;;;;;;;22.85;16.40;;;4.20;88.90;;;;;;5107441;28;20401;-89
2022/12/03 05:50:12;;;;;;;22.55;16.70;;;4.20;89.20;;;;;;5105581;28;20933;-87
2022/12/03 05:52:37;;;;;;;22.65;16.40;;;4.20;89.00;;;;;;5090061;28;20409;-88
2022/12/03 05:55:03;;;;;;;23.30;16.60;;;4.10;88.80;;;;;;5105546;28;20427;-89
2022/12/03 05:57:29;;;;;;;22.63;16.52;;;4.10;88.90;;;;;;5089710;28;20451;-89
2022/12/03 05:59:54;;;;;;;21.33;15.67;;;4.10;88.40;;;;;;5089148;28;20798;-88
2022/12/03 06:02:20;;;;;;;21.83;16.00;;;4.10;88.60;;;;;;5078664;28;20446;-88
2022/12/03 06:04:45;;;;;;;23.60;16.83;;;4.10;88.20;;;;;;5096085;28;20414;-89
2022/12/03 06:07:11;;;;;;;22.98;16.38;;;4.10;88.50;;;;;;5096500;28;20404;-90
2022/12/03 06:09:36;;;;;;;23.10;16.23;;;4.10;88.70;;;;;;5098364;28;20404;-89
2022/12/03 06:12:03;;;;;;;22.40;15.93;;;4.20;89.00;;;;;;5085113;28;20900;-90
2022/12/03 06:14:30;;;;;;;21.75;16.05;;;4.10;89.20;;;;;;5068958;28;20397;-90
2022/12/03 06:16:56;;;;;;;22.92;17.38;;;4.30;89.30;;;;;;5096609;28;20408;-89
2022/12/03 06:19:22;;;;;;;21.95;15.60;;;4.10;89.40;;;;;;5105933;28;20415;-88
2022/12/03 06:21:47;;;;;;;23.13;17.30;;;4.10;89.60;;;;;;5089034;28;20400;-89
2022/12/03 06:24:13;;;;;;;24.30;17.13;;;4.10;89.50;;;;;;5088082;28;20412;-90
2022/12/03 06:26:38;;;;;;;22.65;16.73;;;4.20;89.80;;;;;;5089482;28;20963;-88
2022/12/03 06:29:04;;;;;;;23.00;16.53;;;4.10;90.00;;;;;;5105102;28;20419;-87
2022/12/03 06:31:29;;;;;;;21.70;16.40;;;4.10;90.30;;;;;;5080932;28;20553;-87
2022/12/03 06:33:55;;;;;;;23.25;16.50;;;4.10;90.00;;;;;;5098182;28;20408;-90
2022/12/03 06:36:21;;;;;;;20.13;15.33;;;4.10;89.70;;;;;;5096064;28;20771;-87
2022/12/03 06:38:46;;;;;;;20.97;15.77;;;4.10;89.40;;;;;;5088045;28;20612;-88
2022/12/03 06:41:12;;;;;;;20.40;14.88;;;4.10;89.40;;;;;;5096557;28;20437;-90
2022/12/03 06:43:38;;;;;;;22.20;15.20;;;4.10;88.90;;;;;;5080708;28;20475;-87
2022/12/03 06:46:03;;;;;;;20.53;14.73;;;4.10;88.80;;;;;;5078785;28;20413;-88
2022/12/03 06:48:29;;;;;;;21.48;15.02;;;4.10;88.60;;;;;;5077649;28;20405;-90
2022/12/03 06:50:55;;;;;;;21.17;14.60;;;4.10;88.90;;;;;;5085711;28;20402;-90
2022/12/03 06:53:20;;;;;;;20.30;14.53;;;4.10;88.50;;;;;;5087710;28;20410;-90
2022/12/03 06:55:46;;;;;;;21.35;14.98;;;4.10;88.70;;;;;;5067740;28;20440;-89
2022/12/03 06:58:11;;;;;;;21.07;14.53;;;4.00;88.50;;;;;;5069727;28;20390;-89
2022/12/03 07:00:37;;;;;;;21.10;14.40;;;4.00;88.90;;;;;;5076490;28;20535;-89
2022/12/03 07:03:03;;;;;;;20.48;14.13;;;4.10;88.90;;;;;;5095109;28;20398;-88
2022/12/03 07:05:29;;;;;;;19.25;13.77;;;4.00;88.20;;;;;;5072683;28;20438;-90
2022/12/03 07:07:54;;;;;;;19.40;13.27;;;4.00;87.90;;;;;;5074965;28;20867;-88
2022/12/03 07:10:21;;;;;;;22.17;13.97;;;4.00;87.50;;;;;;5068401;28;20457;-88
2022/12/03 07:12:46;;;;;;;19.17;13.38;;;4.00;87.20;;;;;;5067999;28;20455;-88
2022/12/03 07:15:12;;;;;;;20.00;13.90;;;4.10;87.10;;;;;;5067898;28;20912;-89
2022/12/03 07:17:38;;;;;;;21.33;13.70;;;4.00;86.90;;;;;;5092376;28;20409;-88
2022/12/03 07:20:04;;;;;;;19.25;13.85;;;4.00;86.50;;;;;;5078455;28;20521;-87
2022/12/03 07:22:30;;;;;;;19.98;14.40;;;4.00;86.50;;;;;;5081778;28;20980;-89
2022/12/03 07:24:55;;;;;;;19.63;13.67;;;4.00;86.90;;;;;;5077936;28;20719;-89
2022/12/03 07:27:21;;;;;;;18.55;13.52;;;4.00;86.90;;;;;;5092809;28;20397;-88
2022/12/03 07:29:47;;;;;;;19.90;14.40;;;3.90;86.50;;;;;;5097001;28;20444;-90
2022/12/03 07:32:12;;;;;;;18.80;13.17;;;4.00;86.60;;;;;;5100752;28;20404;-89
2022/12/03 07:34:38;;;;;;;19.42;13.95;;;4.00;87.10;;;;;;5104977;28;20402;-88
2022/12/03 07:37:04;;;;;;;20.80;14.47;;;4.00;87.40;;;;;;5079614;28;20402;-88
2022/12/03 07:39:29;;;;;;;19.73;14.13;;;4.00;87.90;;;;;;5080080;28;20426;-89
2022/12/03 07:41:55;;;;;;;20.63;14.52;;;4.00;87.70;;;;;;5099630;28;20410;-89
2022/12/03 07:44:20;;;;;;;20.37;13.93;;;3.90;87.60;;;;;;5088698;28;20390;-90
2022/12/03 07:46:46;;;;;;;20.97;15.13;;;3.90;87.80;;;;;;5087683;28;20896;-89
2022/12/03 07:49:12;;;;;;;19.77;14.48;;;4.00;88.10;;;;;;5089504;28;20480;-91
2022/12/03 07:51:37;;;;;;;21.70;14.73;;;3.90;88.50;;;;;;5071159;28;20452;-90
2022/12/03 07:54:03;;;;;;;21.17;14.90;;;3.90;88.70;;;;;;5071824;28;20409;-89
2022/12/03 07:56:29;;;;;;;21.00;14.77;;;3.90;88.40;;;;;;5087752;28;20437;-88
2022/12/03 07:58:55;;;;;;;21.20;14.52;;;3.90;88.10;;;;;;5087851;28;20433;-88
2022/12/03 08:01:20;;;;;;;21.13;14.23;;;3.90;88.20;;;;;;5088415;28;20443;-90
2022/12/03 08:03:46;;;;;;;22.53;14.80;;;3.90;88.00;;;;;;5070308;28;20414;-90
2022/12/03 08:06:12;;;;;;;19.57;14.27;;;3.90;87.80;;;;;;5072045;28;20772;-90
2022/12/03 08:08:37;;;;;;;19.77;14.23;;;3.90;87.90;;;;;;5070065;28;20402;-88
2022/12/03 08:11:03;;;;;;;19.97;13.83;;;3.90;87.60;;;;;;5088425;28;20421;-87
2022/12/03 08:13:29;;;;;;;20.60;14.70;;;3.90;87.40;;;;;;5069910;28;20403;-89
2022/12/03 08:15:58;;;;;;;21.27;14.30;;;3.90;87.90;;;;;;5088296;28;20437;-88
2022/12/03 08:18:24;;;;;;;21.08;14.98;;;3.90;87.80;;;;;;5071068;28;20444;-89
2022/12/03 08:20:50;;;;;;;19.50;13.13;;;3.90;87.40;;;;;;5086340;28;20520;-88
2022/12/03 08:23:22;;;;;;;21.52;14.40;;;3.90;87.40;;;;;;5088597;28;20412;-89
2022/12/03 08:25:49;;;;;;;20.50;14.35;;;3.90;87.50;;;;;;5066039;28;20489;-87
2022/12/03 08:28:25;;;;;;;19.48;13.82;;;4.00;87.30;;;;;;5071411;28;20401;-89
2022/12/03 08:31:04;;;;;;;20.23;14.38;;;3.90;87.30;;;;;;5070123;28;20408;-87
2022/12/03 08:33:34;;;;;;;20.42;14.25;;;3.90;87.40;;;;;;5087253;28;20734;-89
2022/12/03 08:36:11;;;;;;;20.83;14.32;;;3.90;87.50;;;;;;5087514;28;20781;-87
2022/12/03 08:38:36;;;;;;;20.25;14.30;;;3.90;86.90;;;;;;5069624;28;20429;-89
2022/12/03 08:41:13;;;;;;;19.60;13.40;;;3.90;87.30;;;;;;5070775;28;20462;-89
2022/12/03 08:43:42;;;;;;;20.45;14.63;;;3.90;87.30;;;;;;5069768;28;20428;-88
2022/12/03 08:46:18;;;;;;;20.48;13.65;;;3.90;87.30;;;;;;5087694;28;21130;-89
2022/12/03 08:48:44;;;;;;;19.90;14.15;;;3.90;87.30;;;;;;5070367;28;20493;-87
2022/12/03 08:51:24;;;;;;;20.33;13.98;;;3.90;87.00;;;;;;5070220;28;20799;-90
2022/12/03 08:53:56;;;;;;;20.42;14.77;;;3.90;87.10;;;;;;5088112;28;20516;-90
2022/12/03 08:56:27;;;;;;;21.10;14.37;;;3.90;87.10;;;;;;5086758;28;20934;-88
2022/12/03 08:58:58;;;;;;;19.95;13.82;;;3.90;87.00;;;;;;5070413;28;20394;-88
2022/12/03 09:01:28;;;;;;;20.80;14.30;;;3.90;86.20;;;;;;5086838;28;20402;-89
2022/12/03 09:03:57;;;;;;;21.00;14.43;;;3.90;86.20;;;;;;5087292;28;20418;-89
2022/12/03 09:06:23;;;;;;;20.73;14.65;;;3.90;86.10;;;;;;5087657;28;20437;-88
2022/12/03 09:08:49;;;;;;;21.53;15.00;;;3.90;86.20;;;;;;5069335;28;20425;-90
2022/12/03 09:11:14;;;;;;;21.67;14.80;;;3.90;86.20;;;;;;5070785;28;20409;-91
2022/12/03 09:13:40;;;;;;;21.23;14.73;;;3.90;86.20;;;;;;5090548;28;20428;-89
2022/12/03 09:16:06;;;;;;;22.77;15.02;;;3.90;86.10;;;;;;5087498;28;20406;-90
2022/12/03 09:18:32;;;;;;;21.00;14.65;;;3.90;86.60;;;;;;5069991;28;20398;-89
2022/12/03 09:20:58;;;;;;;21.50;15.02;;;3.90;86.10;;;;;;5086601;28;20509;-88
2022/12/03 09:23:24;;;;;;;22.30;15.60;;;3.90;86.40;;;;;;5087199;28;20445;-88
2022/12/03 09:25:49;;;;;;;21.40;15.43;;;3.90;86.50;;;;;;5086109;28;20406;-90
2022/12/03 09:28:15;;;;;;;25.17;16.27;;;3.90;85.50;;;;;;5080421;28;20746;-88
2022/12/03 09:30:40;;;;;;;24.00;16.53;;;4.00;85.60;;;;;;5084783;28;20490;-89
2022/12/03 09:33:06;;;;;;;24.75;16.38;;;4.00;85.30;;;;;;5092540;28;20446;-89
2022/12/03 09:35:32;;;;;;;21.77;16.20;;;3.90;84.90;;;;;;5085570;28;20414;-88
2022/12/03 09:37:57;;;;;;;23.93;16.60;;;4.00;83.90;;;;;;5089470;28;20415;-87
2022/12/03 09:40:23;;;;;;;23.95;16.95;;;3.90;83.50;;;;;;5106047;28;20783;-90
2022/12/03 09:42:50;;;;;;;25.63;17.05;;;4.00;83.60;;;;;;5099512;28;20398;-89
2022/12/03 09:45:16;;;;;;;25.25;16.65;;;3.90;83.40;;;;;;5084259;28;20392;-89
2022/12/03 09:47:49;;;;;;;24.02;16.63;;;3.90;83.50;;;;;;5089167;28;20392;-87
2022/12/03 09:50:26;;;;;;;24.02;17.25;;;3.90;83.90;;;;;;5106584;28;20400;-88
2022/12/03 09:52:53;;;;;;;25.27;17.90;;;3.90;83.50;;;;;;5088493;28;20479;-88
2022/12/03 09:55:25;;;;;;;23.75;16.92;;;4.10;83.00;;;;;;5088661;28;20982;-89
2022/12/03 09:57:55;;;;;;;24.17;17.10;;;4.00;81.90;;;;;;5068791;28;20437;-88
2022/12/03 10:00:24;;;;;;;25.25;17.42;;;3.90;81.70;;;;;;5068308;28;20426;-89
2022/12/03 10:02:56;;;;;;;23.08;17.13;;;3.90;82.70;;;;;;5079254;28;20456;-89
2022/12/03 10:05:23;;;;;;;24.77;17.25;;;4.00;82.10;;;;;;5087454;28;20643;-86
2022/12/03 10:07:50;;;;;;;23.27;17.48;;;3.90;81.20;;;;;;5089233;28;20499;-88
2022/12/03 10:10:22;;;;;;;25.10;18.23;;;3.90;80.50;;;;;;5104811;28;20771;-89
2022/12/03 10:12:52;;;;;;;24.67;17.63;;;3.90;80.00;;;;;;5105516;28;20412;-88
2022/12/03 10:15:20;;;;;;;26.73;19.00;;;3.90;79.70;;;;;;5088205;28;20487;-88
2022/12/03 10:17:48;;;;;;;25.15;17.60;;;3.90;80.40;;;;;;5087332;28;20392;-89
2022/12/03 10:20:17;;;;;;;25.77;18.80;;;3.90;80.70;;;;;;5089295;28;20829;-89
2022/12/03 10:22:42;;;;;;;26.00;18.65;;;3.90;81.40;;;;;;5079711;28;20397;-90
2022/12/03 10:25:12;;;;;;;25.67;18.13;;;3.90;81.40;;;;;;5093662;28;20864;-89
2022/12/03 10:28:07;;;;;;;25.95;17.90;;;4.00;81.10;;;;;;5092759;28;20479;-89
2022/12/03 10:30:32;;;;;;;25.40;17.88;;;4.00;82.00;;;;;;5082804;28;20814;-87
2022/12/03 10:33:10;;;;;;;24.88;17.08;;;4.00;82.10;;;;;;5067742;28;21231;-89
2022/12/03 10:35:38;;;;;;;25.58;17.45;;;4.00;81.00;;;;;;5084240;28;20409;-90
2022/12/03 10:38:05;;;;;;;24.58;17.58;;;4.00;81.20;;;;;;5068654;28;20398;-87
2022/12/03 10:40:31;;;;;;;31.08;22.05;;;4.00;80.80;;;;;;5083974;28;20422;-88
2022/12/03 10:43:24;;;;;;;26.63;19.20;;;4.00;81.10;;;;;;5085721;28;20780;-88
2022/12/03 10:46:02;;;;;;;24.08;17.52;;;4.10;80.90;;;;;;5066228;28;20402;-90
2022/12/03 10:48:27;;;;;;;26.60;17.60;;;4.10;81.00;;;;;;5084269;28;20438;-89
2022/12/03 10:51:01;;;;;;;24.73;17.40;;;4.10;81.10;;;;;;5085402;28;20457;-90
2022/12/03 10:53:30;;;;;;;25.02;17.95;;;4.10;80.80;;;;;;5084437;28;20414;-90
2022/12/03 10:55:58;;;;;;;24.05;17.35;;;4.10;81.80;;;;;;5067530;28;20406;-89
2022/12/03 10:58:26;;;;;;;25.42;17.77;;;4.20;81.30;;;;;;5066487;28;20405;-89
2022/12/03 11:00:54;;;;;;;24.38;17.25;;;4.20;80.40;;;;;;5084034;28;20425;-86
2022/12/03 11:03:22;;;;;;;24.45;17.10;;;4.10;80.40;;;;;;5084250;28;20435;-88
2022/12/03 11:05:49;;;;;;;23.65;17.58;;;4.10;79.30;;;;;;5082645;28;20477;-89
2022/12/03 11:08:17;;;;;;;25.02;17.35;;;4.10;79.40;;;;;;5084444;28;20876;-91
2022/12/03 11:10:43;;;;;;;23.98;16.48;;;4.10;78.90;;;;;;5083473;28;20433;-87
2022/12/03 11:13:41;;;;;;;24.20;16.95;;;4.10;78.20;;;;;;5068129;28;20919;-89
2022/12/03 11:16:09;;;;;;;26.65;17.92;;;4.10;77.90;;;;;;5066787;28;20429;-89
2022/12/03 11:18:34;;;;;;;25.17;17.75;;;4.10;78.30;;;;;;5083509;28;20556;-90
2022/12/03 11:21:05;;;;;;;24.83;17.17;;;4.10;79.00;;;;;;5083763;28;20624;-89
2022/12/03 11:23:43;;;;;;;24.67;17.13;;;4.00;78.90;;;;;;5070466;28;20920;-89
2022/12/03 11:26:35;;;;;;;24.42;16.88;;;4.00;78.80;;;;;;5084475;28;20409;-86
2022/12/03 11:29:02;;;;;;;26.63;17.60;;;4.00;79.30;;;;;;5035992;28;20516;-89
2022/12/03 11:31:40;;;;;;;23.97;17.50;;;4.00;80.10;;;;;;5085693;28;20453;-87
2022/12/03 11:34:15;;;;;;;24.10;17.33;;;4.00;79.40;;;;;;5088084;28;20454;-90
2022/12/03 11:37:09;;;;;;;25.17;17.08;;;4.00;80.00;;;;;;5086489;28;20404;-89
2022/12/03 11:40:02;;;;;;;25.58;18.08;;;4.00;80.10;;;;;;5087697;28;20519;-89
2022/12/03 11:42:37;;;;;;;25.65;18.05;;;4.00;80.40;;;;;;5079345;28;20474;-91
2022/12/03 11:45:07;;;;;;;23.77;16.77;;;4.00;79.60;;;;;;5103122;28;20537;-90
2022/12/03 11:47:57;;;;;;;25.63;17.35;;;4.00;79.60;;;;;;5087465;28;20431;-88
2022/12/03 11:50:33;;;;;;;24.33;17.20;;;4.00;80.60;;;;;;5086740;28;20412;-88
2022/12/03 11:53:20;;;;;;;24.73;17.42;;;4.00;80.10;;;;;;5086331;28;20473;-88
2022/12/03 11:55:52;;;;;;;24.90;17.90;;;4.00;80.60;;;;;;5103513;28;20439;-89
2022/12/03 11:58:25;;;;;;;25.98;18.08;;;4.00;80.60;;;;;;5103232;28;20873;-89
2022/12/03 12:00:53;;;;;;;26.20;18.40;;;4.10;79.70;;;;;;5086377;28;20428;-90
2022/12/03 12:03:25;;;;;;;25.02;17.85;;;4.00;79.30;;;;;;5086443;28;20416;-91
2022/12/03 12:06:11;;;;;;;25.35;17.75;;;4.00;79.90;;;;;;5086913;28;20464;-88
2022/12/03 12:08:53;;;;;;;26.02;18.33;;;4.10;80.10;;;;;;5087035;28;20416;-91
2022/12/03 12:11:29;;;;;;;25.65;17.55;;;4.10;80.90;;;;;;5086304;28;20921;-91
2022/12/03 12:13:57;;;;;;;25.57;18.60;;;4.10;79.80;;;;;;5087714;28;20992;-91
2022/12/03 12:16:51;;;;;;;26.20;18.30;;;4.10;79.20;;;;;;5087079;28;20491;-89
2022/12/03 12:19:32;;;;;;;25.00;17.92;;;4.00;78.90;;;;;;5089662;28;20974;-88
2022/12/03 12:22:22;;;;;;;27.08;18.77;;;4.00;78.90;;;;;;5108316;28;20416;-90
2022/12/03 12:24:53;;;;;;;26.63;18.25;;;4.00;79.30;;;;;;5090090;28;20856;-89
2022/12/03 12:27:46;;;;;;;26.23;18.65;;;4.00;79.20;;;;;;5107391;28;20432;-90
2022/12/03 12:30:17;;;;;;;26.40;18.33;;;4.00;80.10;;;;;;5088637;28;20409;-88
2022/12/03 12:32:47;;;;;;;25.65;18.33;;;4.00;79.50;;;;;;5088832;28;20911;-91
2022/12/03 12:35:22;;;;;;;26.02;18.60;;;4.00;79.20;;;;;;5103537;28;20406;-89
2022/12/03 12:37:55;;;;;;;26.65;18.35;;;4.00;79.10;;;;;;5086141;28;20412;-89
2022/12/03 12:40:26;;;;;;;25.98;18.60;;;4.00;79.50;;;;;;5086078;28;20483;-88
2022/12/03 12:42:56;;;;;;;26.85;18.83;;;4.00;79.20;;;;;;5097577;28;20462;-88
2022/12/03 12:45:32;;;;;;;29.03;19.60;;;3.90;78.50;;;;;;5069314;28;20405;-89
2022/12/03 12:48:06;;;;;;;27.70;19.03;;;3.90;79.10;;;;;;5087099;28;20509;-90
2022/12/03 12:50:34;;;;;;;27.73;19.17;;;3.90;79.00;;;;;;5070073;28;20402;-87
2022/12/03 12:53:25;;;;;;;28.05;19.40;;;3.90;79.10;;;;;;5087933;28;20775;-90
2022/12/03 12:55:58;;;;;;;27.77;19.67;;;3.90;79.20;;;;;;5070702;28;20406;-90
2022/12/03 12:58:25;;;;;;;27.45;19.30;;;3.90;79.60;;;;;;5069724;28;20425;-89
2022/12/03 13:00:53;;;;;;;27.33;19.42;;;3.90;80.00;;;;;;5088043;28;20499;-89